sensor_id;sensor_type;location;lat;lon;timestamp;pressure;altitude;pressure_sealevel;temperature;humidity
58064;BME280;43851;55.856;37.186;2022-08-19T00:00:24;99954.38;;;19.60;64.57
58064;BME280;43851;55.856;37.186;2022-08-19T00:02:50;99954.38;;;19.60;64.12
58064;BME280;43851;55.856;37.186;2022-08-19T00:05:17;99963.06;;;19.68;64.03
58064;BME280;43851;55.856;37.186;2022-08-19T00:07:43;99965.19;;;19.65;63.70
58064;BME280;43851;55.856;37.186;2022-08-19T00:10:10;99962.56;;;19.71;64.00
58064;BME280;43851;55.856;37.186;2022-08-19T00:12:37;99977.94;;;19.75;63.95
58064;BME280;43851;55.856;37.186;2022-08-19T00:15:05;99967.69;;;19.72;63.96
58064;BME280;43851;55.856;37.186;2022-08-19T00:17:33;99975.44;;;19.69;64.53
58064;BME280;43851;55.856;37.186;2022-08-19T00:19:59;99979.75;;;19.70;64.44
58064;BME280;43851;55.856;37.186;2022-08-19T00:22:25;99980.84;;;19.69;64.55
58064;BME280;43851;55.856;37.186;2022-08-19T00:24:54;99980.53;;;19.65;64.62
58064;BME280;43851;55.856;37.186;2022-08-19T00:27:19;99979.38;;;19.61;64.74
58064;BME280;43851;55.856;37.186;2022-08-19T00:29:45;99975.63;;;19.62;64.30
58064;BME280;43851;55.856;37.186;2022-08-19T00:32:11;99979.38;;;19.61;64.58
58064;BME280;43851;55.856;37.186;2022-08-19T00:34:37;99978.47;;;19.55;64.66
58064;BME280;43851;55.856;37.186;2022-08-19T00:37:03;99976.38;;;19.57;64.79
58064;BME280;43851;55.856;37.186;2022-08-19T00:39:29;99974.19;;;19.54;64.88
58064;BME280;43851;55.856;37.186;2022-08-19T00:41:55;99973.28;;;19.48;65.13
58064;BME280;43851;55.856;37.186;2022-08-19T00:44:24;99977.03;;;19.47;65.62
58064;BME280;43851;55.856;37.186;2022-08-19T00:46:52;99986.06;;;19.41;66.10
58064;BME280;43851;55.856;37.186;2022-08-19T00:49:19;99995.72;;;19.37;66.51
58064;BME280;43851;55.856;37.186;2022-08-19T00:51:50;99994.31;;;19.35;66.87
58064;BME280;43851;55.856;37.186;2022-08-19T00:54:17;99995.53;;;19.27;67.41
58064;BME280;43851;55.856;37.186;2022-08-19T00:56:44;99998.41;;;19.20;67.55
58064;BME280;43851;55.856;37.186;2022-08-19T00:59:10;99988.38;;;19.16;68.20
58064;BME280;43851;55.856;37.186;2022-08-19T01:01:37;99994.00;;;19.14;68.30
58064;BME280;43851;55.856;37.186;2022-08-19T01:04:04;100001.75;;;19.10;68.87
58064;BME280;43851;55.856;37.186;2022-08-19T01:06:30;100007.34;;;19.09;69.01
58064;BME280;43851;55.856;37.186;2022-08-19T01:08:59;99998.63;;;19.02;69.31
58064;BME280;43851;55.856;37.186;2022-08-19T01:11:26;99992.84;;;18.93;69.79
58064;BME280;43851;55.856;37.186;2022-08-19T01:13:53;99999.28;;;18.92;70.27
58064;BME280;43851;55.856;37.186;2022-08-19T01:16:22;100002.94;;;18.86;70.47
58064;BME280;43851;55.856;37.186;2022-08-19T01:18:49;100003.53;;;18.76;71.08
58064;BME280;43851;55.856;37.186;2022-08-19T01:21:42;100007.19;;;18.70;71.96
58064;BME280;43851;55.856;37.186;2022-08-19T01:24:09;99999.16;;;18.58;71.91
58064;BME280;43851;55.856;37.186;2022-08-19T01:26:41;100002.41;;;18.43;72.81
58064;BME280;43851;55.856;37.186;2022-08-19T01:29:08;100005.16;;;18.48;72.39
58064;BME280;43851;55.856;37.186;2022-08-19T01:31:35;100006.97;;;18.43;73.05
58064;BME280;43851;55.856;37.186;2022-08-19T01:34:02;100009.53;;;18.37;73.23
58064;BME280;43851;55.856;37.186;2022-08-19T01:36:47;100008.63;;;18.32;73.74
58064;BME280;43851;55.856;37.186;2022-08-19T01:39:21;100014.22;;;18.30;73.94
58064;BME280;43851;55.856;37.186;2022-08-19T01:41:47;100023.22;;;18.24;74.28
58064;BME280;43851;55.856;37.186;2022-08-19T01:44:14;100022.31;;;18.18;74.21
58064;BME280;43851;55.856;37.186;2022-08-19T01:46:42;100020.00;;;18.10;74.55
58064;BME280;43851;55.856;37.186;2022-08-19T01:49:09;100027.94;;;18.05;75.02
58064;BME280;43851;55.856;37.186;2022-08-19T01:51:36;100025.97;;;18.00;74.92
58064;BME280;43851;55.856;37.186;2022-08-19T01:54:03;100030.06;;;17.91;75.62
58064;BME280;43851;55.856;37.186;2022-08-19T01:56:29;100029.81;;;17.93;75.52
58064;BME280;43851;55.856;37.186;2022-08-19T01:59:08;100029.47;;;17.89;75.28
58064;BME280;43851;55.856;37.186;2022-08-19T02:01:35;100030.72;;;17.86;75.63
58064;BME280;43851;55.856;37.186;2022-08-19T02:04:02;100030.63;;;17.81;75.68
58064;BME280;43851;55.856;37.186;2022-08-19T02:06:28;100034.44;;;17.85;75.47
58064;BME280;43851;55.856;37.186;2022-08-19T02:08:55;100036.56;;;17.83;74.88
58064;BME280;43851;55.856;37.186;2022-08-19T02:11:24;100037.25;;;17.79;75.16
58064;BME280;43851;55.856;37.186;2022-08-19T02:13:53;100034.00;;;17.77;75.01
58064;BME280;43851;55.856;37.186;2022-08-19T02:16:20;100039.13;;;17.78;75.28
58064;BME280;43851;55.856;37.186;2022-08-19T02:18:47;100024.22;;;17.71;74.94
58064;BME280;43851;55.856;37.186;2022-08-19T02:21:17;100038.06;;;17.79;74.72
58064;BME280;43851;55.856;37.186;2022-08-19T02:23:44;100040.75;;;17.79;74.59
58064;BME280;43851;55.856;37.186;2022-08-19T02:26:10;100048.22;;;17.77;74.77
58064;BME280;43851;55.856;37.186;2022-08-19T02:28:38;100034.59;;;17.79;74.94
58064;BME280;43851;55.856;37.186;2022-08-19T02:31:12;100038.31;;;17.78;74.73
58064;BME280;43851;55.856;37.186;2022-08-19T02:33:38;100041.22;;;17.76;74.82
58064;BME280;43851;55.856;37.186;2022-08-19T02:36:06;100039.94;;;17.79;74.35
58064;BME280;43851;55.856;37.186;2022-08-19T02:38:32;100036.47;;;17.78;74.50
58064;BME280;43851;55.856;37.186;2022-08-19T02:41:05;100042.16;;;17.82;74.03
58064;BME280;43851;55.856;37.186;2022-08-19T02:43:33;100032.47;;;17.81;73.66
58064;BME280;43851;55.856;37.186;2022-08-19T02:46:20;100027.94;;;17.81;73.25
58064;BME280;43851;55.856;37.186;2022-08-19T02:48:48;100019.44;;;17.84;73.21
58064;BME280;43851;55.856;37.186;2022-08-19T02:51:37;100023.50;;;17.87;73.17
58064;BME280;43851;55.856;37.186;2022-08-19T02:54:04;100030.41;;;17.83;73.37
58064;BME280;43851;55.856;37.186;2022-08-19T02:56:31;100022.13;;;17.84;73.22
58064;BME280;43851;55.856;37.186;2022-08-19T02:58:57;100024.56;;;17.86;73.06
58064;BME280;43851;55.856;37.186;2022-08-19T03:01:29;100035.53;;;17.84;73.49
58064;BME280;43851;55.856;37.186;2022-08-19T03:03:57;100051.13;;;17.76;74.19
58064;BME280;43851;55.856;37.186;2022-08-19T03:06:23;100043.91;;;17.76;74.03
58064;BME280;43851;55.856;37.186;2022-08-19T03:08:49;100054.41;;;17.78;74.30
58064;BME280;43851;55.856;37.186;2022-08-19T03:11:17;100049.50;;;17.75;74.06
58064;BME280;43851;55.856;37.186;2022-08-19T03:13:44;100040.88;;;17.73;73.75
58064;BME280;43851;55.856;37.186;2022-08-19T03:16:11;100040.97;;;17.78;73.45
58064;BME280;43851;55.856;37.186;2022-08-19T03:18:37;100037.25;;;17.79;73.35
58064;BME280;43851;55.856;37.186;2022-08-19T03:21:04;100041.69;;;17.85;73.04
58064;BME280;43851;55.856;37.186;2022-08-19T03:23:30;100039.72;;;17.80;73.08
58064;BME280;43851;55.856;37.186;2022-08-19T03:25:56;100050.09;;;17.89;73.08
58064;BME280;43851;55.856;37.186;2022-08-19T03:28:22;100057.69;;;17.92;73.07
58064;BME280;43851;55.856;37.186;2022-08-19T03:31:14;100053.59;;;18.01;73.08
58064;BME280;43851;55.856;37.186;2022-08-19T03:33:40;100049.78;;;17.97;72.68
58064;BME280;43851;55.856;37.186;2022-08-19T03:36:14;100057.22;;;18.07;72.45
58064;BME280;43851;55.856;37.186;2022-08-19T03:38:42;100063.50;;;18.12;72.11
58064;BME280;43851;55.856;37.186;2022-08-19T03:41:13;100057.91;;;18.14;72.17
58064;BME280;43851;55.856;37.186;2022-08-19T03:43:40;100058.25;;;18.17;71.74
58064;BME280;43851;55.856;37.186;2022-08-19T03:46:09;100061.97;;;18.28;71.73
58064;BME280;43851;55.856;37.186;2022-08-19T03:48:37;100059.16;;;18.35;71.41
58064;BME280;43851;55.856;37.186;2022-08-19T03:51:05;100063.09;;;18.44;70.76
58064;BME280;43851;55.856;37.186;2022-08-19T03:53:32;100049.44;;;18.46;70.78
58064;BME280;43851;55.856;37.186;2022-08-19T03:55:58;100055.00;;;18.56;70.45
58064;BME280;43851;55.856;37.186;2022-08-19T03:58:29;100059.66;;;18.61;70.38
58064;BME280;43851;55.856;37.186;2022-08-19T04:00:56;100060.19;;;18.74;69.85
58064;BME280;43851;55.856;37.186;2022-08-19T04:03:23;100056.97;;;18.89;69.37
58064;BME280;43851;55.856;37.186;2022-08-19T04:05:50;100057.84;;;19.07;68.81
58064;BME280;43851;55.856;37.186;2022-08-19T04:08:16;100067.22;;;19.04;68.60
58064;BME280;43851;55.856;37.186;2022-08-19T04:10:48;100064.03;;;19.07;68.75
58064;BME280;43851;55.856;37.186;2022-08-19T04:13:16;100064.59;;;19.09;68.60
58064;BME280;43851;55.856;37.186;2022-08-19T04:15:44;100065.19;;;19.11;68.76
58064;BME280;43851;55.856;37.186;2022-08-19T04:18:12;100060.63;;;19.12;68.81
58064;BME280;43851;55.856;37.186;2022-08-19T04:20:46;100056.63;;;19.15;68.54
58064;BME280;43851;55.856;37.186;2022-08-19T04:23:14;100060.88;;;19.27;68.32
58064;BME280;43851;55.856;37.186;2022-08-19T04:25:42;100063.72;;;19.38;67.80
58064;BME280;43851;55.856;37.186;2022-08-19T04:28:10;100077.00;;;19.44;67.61
58064;BME280;43851;55.856;37.186;2022-08-19T04:30:41;100061.72;;;19.45;67.44
58064;BME280;43851;55.856;37.186;2022-08-19T04:33:09;100072.38;;;19.57;67.17
58064;BME280;43851;55.856;37.186;2022-08-19T04:35:37;100070.34;;;19.64;67.02
58064;BME280;43851;55.856;37.186;2022-08-19T04:38:03;100070.34;;;19.81;66.22
58064;BME280;43851;55.856;37.186;2022-08-19T04:40:29;100062.28;;;19.81;66.36
58064;BME280;43851;55.856;37.186;2022-08-19T04:43:13;100073.66;;;19.88;66.40
58064;BME280;43851;55.856;37.186;2022-08-19T04:45:40;100070.16;;;19.88;66.13
58064;BME280;43851;55.856;37.186;2022-08-19T04:48:05;100072.19;;;19.97;65.88
58064;BME280;43851;55.856;37.186;2022-08-19T04:50:31;100078.59;;;20.13;65.34
58064;BME280;43851;55.856;37.186;2022-08-19T04:52:57;100083.88;;;20.25;64.79
58064;BME280;43851;55.856;37.186;2022-08-19T04:55:23;100079.50;;;20.41;64.56
58064;BME280;43851;55.856;37.186;2022-08-19T04:57:51;100084.69;;;20.48;64.25
58064;BME280;43851;55.856;37.186;2022-08-19T05:00:17;100088.06;;;20.60;63.76
58064;BME280;43851;55.856;37.186;2022-08-19T05:02:42;100096.44;;;20.64;63.96
58064;BME280;43851;55.856;37.186;2022-08-19T05:05:08;100081.63;;;20.83;63.07
58064;BME280;43851;55.856;37.186;2022-08-19T05:07:35;100097.84;;;20.88;62.81
58064;BME280;43851;55.856;37.186;2022-08-19T05:10:03;100088.69;;;20.89;62.55
58064;BME280;43851;55.856;37.186;2022-08-19T05:12:33;100082.84;;;20.98;62.37
58064;BME280;43851;55.856;37.186;2022-08-19T05:14:59;100081.19;;;20.97;62.28
58064;BME280;43851;55.856;37.186;2022-08-19T05:17:26;100081.06;;;21.08;61.93
58064;BME280;43851;55.856;37.186;2022-08-19T05:19:52;100088.06;;;21.09;62.22
58064;BME280;43851;55.856;37.186;2022-08-19T05:22:37;100095.13;;;21.16;61.87
58064;BME280;43851;55.856;37.186;2022-08-19T05:25:05;100085.47;;;21.20;61.35
58064;BME280;43851;55.856;37.186;2022-08-19T05:27:32;100082.56;;;21.26;61.59
58064;BME280;43851;55.856;37.186;2022-08-19T05:29:58;100083.22;;;21.39;61.38
58064;BME280;43851;55.856;37.186;2022-08-19T05:32:24;100091.31;;;21.39;61.09
58064;BME280;43851;55.856;37.186;2022-08-19T05:34:50;100065.91;;;21.35;60.93
58064;BME280;43851;55.856;37.186;2022-08-19T05:37:16;100083.88;;;21.51;60.51
58064;BME280;43851;55.856;37.186;2022-08-19T05:39:42;100088.81;;;21.65;60.41
58064;BME280;43851;55.856;37.186;2022-08-19T05:42:10;100092.47;;;21.80;60.62
58064;BME280;43851;55.856;37.186;2022-08-19T05:44:39;100086.84;;;21.87;59.61
58064;BME280;43851;55.856;37.186;2022-08-19T05:47:07;100088.50;;;21.98;58.95
58064;BME280;43851;55.856;37.186;2022-08-19T05:49:35;100090.00;;;22.22;58.94
58064;BME280;43851;55.856;37.186;2022-08-19T05:52:04;100079.75;;;22.24;58.18
58064;BME280;43851;55.856;37.186;2022-08-19T05:54:31;100094.94;;;22.30;58.06
58064;BME280;43851;55.856;37.186;2022-08-19T05:56:57;100085.50;;;22.32;57.90
58064;BME280;43851;55.856;37.186;2022-08-19T05:59:23;100082.44;;;22.29;58.03
58064;BME280;43851;55.856;37.186;2022-08-19T06:01:52;100096.78;;;22.29;57.59
58064;BME280;43851;55.856;37.186;2022-08-19T06:04:20;100091.59;;;22.23;57.58
58064;BME280;43851;55.856;37.186;2022-08-19T06:06:47;100095.41;;;22.22;57.55
58064;BME280;43851;55.856;37.186;2022-08-19T06:09:14;100096.31;;;22.32;57.74
58064;BME280;43851;55.856;37.186;2022-08-19T06:11:44;100102.72;;;22.26;57.89
58064;BME280;43851;55.856;37.186;2022-08-19T06:14:13;100101.34;;;22.24;58.05
58064;BME280;43851;55.856;37.186;2022-08-19T06:16:41;100108.06;;;22.21;58.49
58064;BME280;43851;55.856;37.186;2022-08-19T06:19:11;100102.91;;;22.14;58.71
58064;BME280;43851;55.856;37.186;2022-08-19T06:21:39;100104.28;;;22.17;58.47
58064;BME280;43851;55.856;37.186;2022-08-19T06:24:09;100110.88;;;22.31;58.16
58064;BME280;43851;55.856;37.186;2022-08-19T06:26:39;100105.94;;;22.23;58.17
58064;BME280;43851;55.856;37.186;2022-08-19T06:29:06;100107.81;;;22.23;58.24
58064;BME280;43851;55.856;37.186;2022-08-19T06:31:34;100105.09;;;22.23;58.29
58064;BME280;43851;55.856;37.186;2022-08-19T06:34:01;100116.66;;;22.08;58.66
58064;BME280;43851;55.856;37.186;2022-08-19T06:36:33;100111.13;;;22.30;58.57
58064;BME280;43851;55.856;37.186;2022-08-19T06:39:01;100105.97;;;22.28;58.68
58064;BME280;43851;55.856;37.186;2022-08-19T06:41:28;100113.00;;;22.29;58.23
58064;BME280;43851;55.856;37.186;2022-08-19T06:43:55;100108.13;;;22.26;58.42
58064;BME280;43851;55.856;37.186;2022-08-19T06:46:22;100105.22;;;22.38;58.00
58064;BME280;43851;55.856;37.186;2022-08-19T06:48:48;100107.13;;;22.43;57.93
58064;BME280;43851;55.856;37.186;2022-08-19T06:51:16;100107.16;;;22.48;58.18
58064;BME280;43851;55.856;37.186;2022-08-19T06:53:46;100116.88;;;22.49;57.95
58064;BME280;43851;55.856;37.186;2022-08-19T06:56:17;100117.16;;;22.52;58.05
58064;BME280;43851;55.856;37.186;2022-08-19T06:58:44;100118.22;;;22.46;57.90
58064;BME280;43851;55.856;37.186;2022-08-19T07:01:10;100109.09;;;22.63;58.20
58064;BME280;43851;55.856;37.186;2022-08-19T07:03:37;100111.53;;;22.64;58.73
58064;BME280;43851;55.856;37.186;2022-08-19T07:06:06;100109.44;;;22.72;57.94
58064;BME280;43851;55.856;37.186;2022-08-19T07:08:33;100094.53;;;22.74;57.55
58064;BME280;43851;55.856;37.186;2022-08-19T07:10:59;100108.38;;;22.88;57.42
58064;BME280;43851;55.856;37.186;2022-08-19T07:13:25;100107.84;;;22.91;57.40
58064;BME280;43851;55.856;37.186;2022-08-19T07:15:51;100107.84;;;22.91;57.57
58064;BME280;43851;55.856;37.186;2022-08-19T07:18:18;100106.50;;;22.99;57.28
58064;BME280;43851;55.856;37.186;2022-08-19T07:20:45;100109.75;;;22.96;57.43
58064;BME280;43851;55.856;37.186;2022-08-19T07:23:12;100106.25;;;23.05;57.77
58064;BME280;43851;55.856;37.186;2022-08-19T07:25:38;100116.84;;;23.17;57.66
58064;BME280;43851;55.856;37.186;2022-08-19T07:28:04;100109.28;;;23.19;56.78
58064;BME280;43851;55.856;37.186;2022-08-19T07:30:30;100107.41;;;23.25;56.45
58064;BME280;43851;55.856;37.186;2022-08-19T07:32:56;100109.56;;;23.33;56.19
58064;BME280;43851;55.856;37.186;2022-08-19T07:35:23;100110.06;;;23.20;56.05
58064;BME280;43851;55.856;37.186;2022-08-19T07:37:49;100115.22;;;23.21;56.49
58064;BME280;43851;55.856;37.186;2022-08-19T07:40:15;100108.97;;;23.11;56.45
58064;BME280;43851;55.856;37.186;2022-08-19T07:42:41;100116.06;;;23.22;56.73
58064;BME280;43851;55.856;37.186;2022-08-19T07:45:09;100122.25;;;23.28;56.32
58064;BME280;43851;55.856;37.186;2022-08-19T07:47:35;100102.00;;;23.25;56.07
58064;BME280;43851;55.856;37.186;2022-08-19T07:50:01;100121.19;;;23.29;56.13
58064;BME280;43851;55.856;37.186;2022-08-19T07:52:30;100122.25;;;23.28;55.90
58064;BME280;43851;55.856;37.186;2022-08-19T07:54:55;100115.78;;;23.44;56.18
58064;BME280;43851;55.856;37.186;2022-08-19T07:57:22;100125.53;;;23.50;55.98
58064;BME280;43851;55.856;37.186;2022-08-19T07:59:48;100124.44;;;23.62;55.54
58064;BME280;43851;55.856;37.186;2022-08-19T08:02:14;100125.78;;;23.74;55.58
58064;BME280;43851;55.856;37.186;2022-08-19T08:04:39;100124.16;;;23.73;54.97
58064;BME280;43851;55.856;37.186;2022-08-19T08:07:24;100119.00;;;23.72;55.59
58064;BME280;43851;55.856;37.186;2022-08-19T08:10:09;100131.50;;;23.88;55.10
58064;BME280;43851;55.856;37.186;2022-08-19T08:12:39;100126.31;;;24.07;54.94
58064;BME280;43851;55.856;37.186;2022-08-19T08:15:14;100138.78;;;24.08;54.60
58064;BME280;43851;55.856;37.186;2022-08-19T08:17:44;100121.16;;;24.11;54.48
58064;BME280;43851;55.856;37.186;2022-08-19T08:20:11;100136.81;;;24.35;54.15
58064;BME280;43851;55.856;37.186;2022-08-19T08:22:43;100137.34;;;24.37;54.00
58064;BME280;43851;55.856;37.186;2022-08-19T08:25:34;100131.06;;;24.62;53.65
58064;BME280;43851;55.856;37.186;2022-08-19T08:28:01;100132.84;;;24.82;53.26
58064;BME280;43851;55.856;37.186;2022-08-19T08:30:29;100122.03;;;24.77;51.97
58064;BME280;43851;55.856;37.186;2022-08-19T08:32:56;100131.13;;;24.96;52.39
58064;BME280;43851;55.856;37.186;2022-08-19T08:35:23;100125.75;;;24.91;47.49
58064;BME280;43851;55.856;37.186;2022-08-19T08:37:51;100116.56;;;24.87;44.73
58064;BME280;43851;55.856;37.186;2022-08-19T08:43:03;100126.16;;;25.09;44.35
58064;BME280;43851;55.856;37.186;2022-08-19T08:45:35;100119.56;;;25.25;43.72
58064;BME280;43851;55.856;37.186;2022-08-19T08:48:24;100110.31;;;25.31;42.83
58064;BME280;43851;55.856;37.186;2022-08-19T08:50:51;100113.56;;;25.33;42.24
58064;BME280;43851;55.856;37.186;2022-08-19T08:53:20;100122.00;;;25.27;42.11
58064;BME280;43851;55.856;37.186;2022-08-19T08:55:46;100113.41;;;25.14;42.24
58064;BME280;43851;55.856;37.186;2022-08-19T09:01:11;100110.44;;;25.11;42.07
58064;BME280;43851;55.856;37.186;2022-08-19T09:03:39;100119.56;;;25.25;42.69
58064;BME280;43851;55.856;37.186;2022-08-19T09:08:59;100118.81;;;25.54;43.31
58064;BME280;43851;55.856;37.186;2022-08-19T09:14:41;100129.22;;;25.76;43.58
58064;BME280;43851;55.856;37.186;2022-08-19T09:17:12;100134.50;;;25.91;44.11
58064;BME280;43851;55.856;37.186;2022-08-19T09:19:51;100134.81;;;26.19;43.60
58064;BME280;43851;55.856;37.186;2022-08-19T09:22:19;100131.47;;;25.98;44.09
58064;BME280;43851;55.856;37.186;2022-08-19T09:24:49;100128.75;;;25.98;43.82
58064;BME280;43851;55.856;37.186;2022-08-19T09:27:15;100132.25;;;26.04;43.82
58064;BME280;43851;55.856;37.186;2022-08-19T09:29:47;100140.03;;;26.35;43.71
58064;BME280;43851;55.856;37.186;2022-08-19T09:32:14;100131.38;;;26.08;43.48
58064;BME280;43851;55.856;37.186;2022-08-19T09:34:40;100139.06;;;26.01;44.16
58064;BME280;43851;55.856;37.186;2022-08-19T09:37:07;100138.25;;;26.01;44.34
58064;BME280;43851;55.856;37.186;2022-08-19T09:39:33;100141.78;;;25.96;43.28
58064;BME280;43851;55.856;37.186;2022-08-19T09:41:59;100133.00;;;26.34;42.83
58064;BME280;43851;55.856;37.186;2022-08-19T09:44:25;100133.44;;;26.41;42.14
58064;BME280;43851;55.856;37.186;2022-08-19T09:46:54;100140.28;;;26.38;41.81
58064;BME280;43851;55.856;37.186;2022-08-19T09:49:20;100125.09;;;26.13;41.95
58064;BME280;43851;55.856;37.186;2022-08-19T09:51:55;100135.38;;;26.40;41.80
58064;BME280;43851;55.856;37.186;2022-08-19T09:54:22;100141.09;;;26.39;41.39
58064;BME280;43851;55.856;37.186;2022-08-19T09:56:49;100122.31;;;26.18;41.50
58064;BME280;43851;55.856;37.186;2022-08-19T09:59:15;100124.72;;;26.44;40.76
58064;BME280;43851;55.856;37.186;2022-08-19T10:01:41;100127.69;;;26.47;40.75
58064;BME280;43851;55.856;37.186;2022-08-19T10:04:07;100129.16;;;26.83;40.92
58064;BME280;43851;55.856;37.186;2022-08-19T10:06:38;100128.44;;;26.77;41.38
58064;BME280;43851;55.856;37.186;2022-08-19T10:09:06;100156.97;;;26.32;41.91
58064;BME280;43851;55.856;37.186;2022-08-19T10:11:34;100145.69;;;26.19;42.49
58064;BME280;43851;55.856;37.186;2022-08-19T10:14:01;100121.66;;;26.26;42.79
58064;BME280;43851;55.856;37.186;2022-08-19T10:16:27;100120.78;;;26.31;42.50
58064;BME280;43851;55.856;37.186;2022-08-19T10:18:54;100117.44;;;26.39;43.03
58064;BME280;43851;55.856;37.186;2022-08-19T10:21:32;100129.25;;;26.54;42.11
58064;BME280;43851;55.856;37.186;2022-08-19T10:24:16;100125.28;;;26.41;42.18
58064;BME280;43851;55.856;37.186;2022-08-19T10:26:43;100150.59;;;26.41;42.47
58064;BME280;43851;55.856;37.186;2022-08-19T10:29:17;100130.59;;;26.32;42.98
58064;BME280;43851;55.856;37.186;2022-08-19T10:31:45;100122.28;;;26.42;42.21
58064;BME280;43851;55.856;37.186;2022-08-19T10:34:17;100137.75;;;26.23;41.75
58064;BME280;43851;55.856;37.186;2022-08-19T10:37:03;100111.03;;;26.30;40.31
58064;BME280;43851;55.856;37.186;2022-08-19T10:39:49;100134.75;;;26.24;39.06
58064;BME280;43851;55.856;37.186;2022-08-19T10:42:16;100135.25;;;26.26;38.69
58064;BME280;43851;55.856;37.186;2022-08-19T10:44:44;100147.00;;;26.22;38.38
58064;BME280;43851;55.856;37.186;2022-08-19T10:47:10;100135.84;;;26.47;37.39
58064;BME280;43851;55.856;37.186;2022-08-19T10:49:36;100154.50;;;26.54;35.78
58064;BME280;43851;55.856;37.186;2022-08-19T10:52:22;100152.72;;;26.20;36.15
58064;BME280;43851;55.856;37.186;2022-08-19T10:55:01;100145.59;;;26.48;36.29
58064;BME280;43851;55.856;37.186;2022-08-19T10:57:43;100140.25;;;26.62;35.85
58064;BME280;43851;55.856;37.186;2022-08-19T11:00:11;100148.78;;;26.56;34.98
58064;BME280;43851;55.856;37.186;2022-08-19T11:02:39;100157.63;;;26.18;34.74
58064;BME280;43851;55.856;37.186;2022-08-19T11:05:05;100147.56;;;26.19;34.92
58064;BME280;43851;55.856;37.186;2022-08-19T11:07:32;100144.41;;;26.11;34.59
58064;BME280;43851;55.856;37.186;2022-08-19T11:09:58;100135.09;;;26.42;34.67
58064;BME280;43851;55.856;37.186;2022-08-19T11:12:24;100142.16;;;26.43;34.83
58064;BME280;43851;55.856;37.186;2022-08-19T11:14:50;100145.53;;;26.29;35.65
58064;BME280;43851;55.856;37.186;2022-08-19T11:17:15;100164.47;;;25.81;35.31
58064;BME280;43851;55.856;37.186;2022-08-19T11:19:41;100151.63;;;25.57;36.08
58064;BME280;43851;55.856;37.186;2022-08-19T11:22:10;100141.31;;;25.60;36.18
58064;BME280;43851;55.856;37.186;2022-08-19T11:24:36;100133.84;;;25.75;36.80
58064;BME280;43851;55.856;37.186;2022-08-19T11:27:07;100135.47;;;25.77;36.85
58064;BME280;43851;55.856;37.186;2022-08-19T11:29:37;100125.97;;;25.74;36.89
58064;BME280;43851;55.856;37.186;2022-08-19T11:32:09;100127.59;;;26.04;36.57
58064;BME280;43851;55.856;37.186;2022-08-19T11:34:35;100126.59;;;26.00;32.95
58064;BME280;43851;55.856;37.186;2022-08-19T11:37:02;100131.53;;;26.17;30.48
58064;BME280;43851;55.856;37.186;2022-08-19T11:39:30;100138.09;;;26.40;29.53
58064;BME280;43851;55.856;37.186;2022-08-19T11:42:04;100129.53;;;26.52;29.77
58064;BME280;43851;55.856;37.186;2022-08-19T11:44:51;100129.66;;;26.42;29.18
58064;BME280;43851;55.856;37.186;2022-08-19T11:47:20;100133.81;;;26.10;29.63
58064;BME280;43851;55.856;37.186;2022-08-19T11:49:46;100134.97;;;26.04;30.34
58064;BME280;43851;55.856;37.186;2022-08-19T11:52:13;100142.03;;;26.05;29.35
58064;BME280;43851;55.856;37.186;2022-08-19T11:54:38;100142.50;;;25.78;28.38
58064;BME280;43851;55.856;37.186;2022-08-19T11:57:04;100169.03;;;25.86;28.11
58064;BME280;43851;55.856;37.186;2022-08-19T11:59:33;100136.50;;;25.81;27.88
58064;BME280;43851;55.856;37.186;2022-08-19T12:01:58;100136.50;;;25.81;27.64
58064;BME280;43851;55.856;37.186;2022-08-19T12:04:25;100136.44;;;25.86;28.51
58064;BME280;43851;55.856;37.186;2022-08-19T12:06:50;100134.56;;;25.86;27.74
58064;BME280;43851;55.856;37.186;2022-08-19T12:09:16;100140.44;;;25.93;27.93
58064;BME280;43851;55.856;37.186;2022-08-19T12:11:43;100148.88;;;25.92;28.17
58064;BME280;43851;55.856;37.186;2022-08-19T12:14:12;100146.41;;;26.01;28.54
58064;BME280;43851;55.856;37.186;2022-08-19T12:16:43;100137.97;;;26.02;28.87
58064;BME280;43851;55.856;37.186;2022-08-19T12:19:10;100142.06;;;26.00;29.06
58064;BME280;43851;55.856;37.186;2022-08-19T12:21:36;100149.41;;;26.23;29.12
58064;BME280;43851;55.856;37.186;2022-08-19T12:24:04;100139.88;;;26.26;29.54
58064;BME280;43851;55.856;37.186;2022-08-19T12:26:34;100125.66;;;26.10;30.24
58064;BME280;43851;55.856;37.186;2022-08-19T12:29:00;100135.66;;;25.85;29.96
58064;BME280;43851;55.856;37.186;2022-08-19T12:31:28;100122.75;;;26.01;30.84
58064;BME280;43851;55.856;37.186;2022-08-19T12:33:54;100127.09;;;26.02;31.01
58064;BME280;43851;55.856;37.186;2022-08-19T12:36:20;100138.88;;;25.87;30.13
58064;BME280;43851;55.856;37.186;2022-08-19T12:38:47;100131.66;;;25.78;30.96
58064;BME280;43851;55.856;37.186;2022-08-19T12:41:15;100127.97;;;25.63;31.48
58064;BME280;43851;55.856;37.186;2022-08-19T12:43:43;100116.53;;;25.66;31.76
58064;BME280;43851;55.856;37.186;2022-08-19T12:46:10;100116.53;;;25.66;31.86
58064;BME280;43851;55.856;37.186;2022-08-19T12:48:35;100112.63;;;25.78;32.00
58064;BME280;43851;55.856;37.186;2022-08-19T12:51:09;100112.47;;;25.64;32.22
58064;BME280;43851;55.856;37.186;2022-08-19T12:53:36;100114.97;;;25.60;32.59
58064;BME280;43851;55.856;37.186;2022-08-19T12:56:02;100127.75;;;25.60;33.16
58064;BME280;43851;55.856;37.186;2022-08-19T12:58:29;100121.19;;;25.66;34.48